sensor_id;sensor_type;location;lat;lon;timestamp;P1;durP1;ratioP1;P2;durP2;ratioP2
53505;SDS011;39388;50.936;6.848;2022-11-15T00:01:20;9.35;;;6.60;;
53505;SDS011;39388;50.936;6.848;2022-11-15T00:03:51;8.98;;;6.47;;
53505;SDS011;39388;50.936;6.848;2022-11-15T00:06:21;10.45;;;6.80;;
53505;SDS011;39388;50.936;6.848;2022-11-15T00:08:52;11.88;;;7.70;;
53505;SDS011;39388;50.936;6.848;2022-11-15T00:11:22;10.52;;;7.03;;
53505;SDS011;39388;50.936;6.848;2022-11-15T00:13:56;10.95;;;7.38;;
53505;SDS011;39388;50.936;6.848;2022-11-15T00:16:28;10.77;;;7.15;;
53505;SDS011;39388;50.936;6.848;2022-11-15T00:18:58;11.07;;;8.15;;
53505;SDS011;39388;50.936;6.848;2022-11-15T00:21:31;8.65;;;6.78;;
53505;SDS011;39388;50.936;6.848;2022-11-15T00:24:02;9.77;;;6.50;;
53505;SDS011;39388;50.936;6.848;2022-11-15T00:26:33;9.05;;;7.15;;
53505;SDS011;39388;50.936;6.848;2022-11-15T00:29:03;10.18;;;7.57;;
53505;SDS011;39388;50.936;6.848;2022-11-15T00:31:33;9.80;;;7.80;;
53505;SDS011;39388;50.936;6.848;2022-11-15T00:34:04;8.38;;;6.90;;
53505;SDS011;39388;50.936;6.848;2022-11-15T00:36:34;10.13;;;7.22;;
53505;SDS011;39388;50.936;6.848;2022-11-15T00:39:05;10.88;;;7.53;;
53505;SDS011;39388;50.936;6.848;2022-11-15T00:41:35;8.65;;;6.80;;
53505;SDS011;39388;50.936;6.848;2022-11-15T00:44:06;9.63;;;7.30;;
53505;SDS011;39388;50.936;6.848;2022-11-15T00:46:36;12.52;;;7.20;;
53505;SDS011;39388;50.936;6.848;2022-11-15T00:49:07;9.63;;;6.65;;
53505;SDS011;39388;50.936;6.848;2022-11-15T00:51:37;8.10;;;6.53;;
53505;SDS011;39388;50.936;6.848;2022-11-15T00:54:11;9.55;;;6.93;;
53505;SDS011;39388;50.936;6.848;2022-11-15T00:56:41;10.27;;;7.20;;
53505;SDS011;39388;50.936;6.848;2022-11-15T00:59:11;8.18;;;6.38;;
53505;SDS011;39388;50.936;6.848;2022-11-15T01:01:42;9.30;;;6.68;;
53505;SDS011;39388;50.936;6.848;2022-11-15T01:04:12;10.60;;;6.82;;
53505;SDS011;39388;50.936;6.848;2022-11-15T01:06:43;9.15;;;6.72;;
53505;SDS011;39388;50.936;6.848;2022-11-15T01:09:14;10.52;;;6.65;;
53505;SDS011;39388;50.936;6.848;2022-11-15T01:11:44;10.30;;;7.05;;
53505;SDS011;39388;50.936;6.848;2022-11-15T01:14:15;8.60;;;6.40;;
53505;SDS011;39388;50.936;6.848;2022-11-15T01:16:45;8.30;;;5.88;;
53505;SDS011;39388;50.936;6.848;2022-11-15T01:19:16;9.95;;;6.63;;
53505;SDS011;39388;50.936;6.848;2022-11-15T01:21:48;6.60;;;5.90;;
53505;SDS011;39388;50.936;6.848;2022-11-15T01:24:20;9.18;;;7.03;;
53505;SDS011;39388;50.936;6.848;2022-11-15T01:26:50;8.40;;;6.43;;
53505;SDS011;39388;50.936;6.848;2022-11-15T01:29:21;9.93;;;6.60;;
53505;SDS011;39388;50.936;6.848;2022-11-15T01:31:52;8.77;;;6.78;;
53505;SDS011;39388;50.936;6.848;2022-11-15T01:34:23;10.07;;;6.90;;
53505;SDS011;39388;50.936;6.848;2022-11-15T01:36:54;10.45;;;7.35;;
53505;SDS011;39388;50.936;6.848;2022-11-15T01:39:24;10.65;;;6.60;;
53505;SDS011;39388;50.936;6.848;2022-11-15T01:41:55;9.02;;;6.53;;
53505;SDS011;39388;50.936;6.848;2022-11-15T01:47:09;9.82;;;6.75;;
53505;SDS011;39388;50.936;6.848;2022-11-15T01:49:56;7.85;;;6.80;;
53505;SDS011;39388;50.936;6.848;2022-11-15T01:52:32;8.50;;;6.78;;
53505;SDS011;39388;50.936;6.848;2022-11-15T01:55:20;8.35;;;6.38;;
53505;SDS011;39388;50.936;6.848;2022-11-15T01:57:53;8.52;;;7.22;;
53505;SDS011;39388;50.936;6.848;2022-11-15T02:00:28;10.68;;;7.28;;
53505;SDS011;39388;50.936;6.848;2022-11-15T02:03:00;10.63;;;6.18;;
53505;SDS011;39388;50.936;6.848;2022-11-15T02:05:32;8.70;;;6.70;;
53505;SDS011;39388;50.936;6.848;2022-11-15T02:08:03;10.18;;;6.80;;
53505;SDS011;39388;50.936;6.848;2022-11-15T02:10:34;10.95;;;7.38;;
53505;SDS011;39388;50.936;6.848;2022-11-15T02:13:04;8.07;;;7.10;;
53505;SDS011;39388;50.936;6.848;2022-11-15T02:15:37;10.25;;;6.78;;
53505;SDS011;39388;50.936;6.848;2022-11-15T02:18:28;9.60;;;6.68;;
53505;SDS011;39388;50.936;6.848;2022-11-15T02:32:30;8.77;;;6.35;;
53505;SDS011;39388;50.936;6.848;2022-11-15T02:37:56;8.02;;;6.65;;
53505;SDS011;39388;50.936;6.848;2022-11-15T02:43:11;8.30;;;6.40;;
53505;SDS011;39388;50.936;6.848;2022-11-15T02:48:40;8.07;;;6.15;;
53505;SDS011;39388;50.936;6.848;2022-11-15T02:51:13;8.95;;;6.60;;
53505;SDS011;39388;50.936;6.848;2022-11-15T02:53:44;9.15;;;6.70;;
53505;SDS011;39388;50.936;6.848;2022-11-15T02:56:15;9.95;;;7.10;;
53505;SDS011;39388;50.936;6.848;2022-11-15T02:58:48;9.63;;;6.22;;
53505;SDS011;39388;50.936;6.848;2022-11-15T03:06:48;7.75;;;6.32;;
53505;SDS011;39388;50.936;6.848;2022-11-15T03:09:35;10.60;;;7.00;;
53505;SDS011;39388;50.936;6.848;2022-11-15T03:12:28;9.13;;;6.80;;
53505;SDS011;39388;50.936;6.848;2022-11-15T03:15:09;8.30;;;6.65;;
53505;SDS011;39388;50.936;6.848;2022-11-15T03:17:49;7.73;;;6.67;;
53505;SDS011;39388;50.936;6.848;2022-11-15T03:20:26;9.88;;;6.40;;
53505;SDS011;39388;50.936;6.848;2022-11-15T03:23:00;8.83;;;6.40;;
53505;SDS011;39388;50.936;6.848;2022-11-15T03:25:37;10.32;;;6.68;;
53505;SDS011;39388;50.936;6.848;2022-11-15T03:28:16;10.45;;;6.68;;
53505;SDS011;39388;50.936;6.848;2022-11-15T03:30:52;7.03;;;6.10;;
53505;SDS011;39388;50.936;6.848;2022-11-15T03:33:25;9.07;;;6.30;;
53505;SDS011;39388;50.936;6.848;2022-11-15T03:35:57;7.93;;;6.00;;
53505;SDS011;39388;50.936;6.848;2022-11-15T03:38:29;7.30;;;6.10;;
53505;SDS011;39388;50.936;6.848;2022-11-15T03:41:04;10.10;;;6.38;;
53505;SDS011;39388;50.936;6.848;2022-11-15T03:43:47;7.28;;;6.15;;
53505;SDS011;39388;50.936;6.848;2022-11-15T03:46:23;7.78;;;6.30;;
53505;SDS011;39388;50.936;6.848;2022-11-15T03:49:20;7.95;;;6.10;;
53505;SDS011;39388;50.936;6.848;2022-11-15T03:51:59;6.88;;;6.00;;
53505;SDS011;39388;50.936;6.848;2022-11-15T03:54:34;8.20;;;5.78;;
53505;SDS011;39388;50.936;6.848;2022-11-15T03:57:05;8.07;;;5.65;;
53505;SDS011;39388;50.936;6.848;2022-11-15T03:59:35;9.05;;;5.40;;
53505;SDS011;39388;50.936;6.848;2022-11-15T04:02:06;6.65;;;5.57;;
53505;SDS011;39388;50.936;6.848;2022-11-15T04:04:36;6.47;;;5.07;;
53505;SDS011;39388;50.936;6.848;2022-11-15T04:07:07;7.03;;;5.70;;
53505;SDS011;39388;50.936;6.848;2022-11-15T04:09:37;7.00;;;4.85;;
53505;SDS011;39388;50.936;6.848;2022-11-15T04:12:28;7.85;;;5.40;;
53505;SDS011;39388;50.936;6.848;2022-11-15T04:15:04;6.22;;;5.00;;
53505;SDS011;39388;50.936;6.848;2022-11-15T04:17:41;5.85;;;4.95;;
53505;SDS011;39388;50.936;6.848;2022-11-15T04:20:17;7.63;;;5.13;;
53505;SDS011;39388;50.936;6.848;2022-11-15T04:23:14;5.53;;;4.78;;
53505;SDS011;39388;50.936;6.848;2022-11-15T04:26:11;8.73;;;5.70;;
53505;SDS011;39388;50.936;6.848;2022-11-15T04:28:45;7.35;;;5.03;;
53505;SDS011;39388;50.936;6.848;2022-11-15T04:31:34;7.43;;;4.90;;
53505;SDS011;39388;50.936;6.848;2022-11-15T04:34:04;6.85;;;5.25;;
53505;SDS011;39388;50.936;6.848;2022-11-15T04:36:37;7.68;;;5.53;;
53505;SDS011;39388;50.936;6.848;2022-11-15T04:43:00;6.50;;;5.00;;
53505;SDS011;39388;50.936;6.848;2022-11-15T04:45:39;7.03;;;5.45;;
53505;SDS011;39388;50.936;6.848;2022-11-15T05:04:58;7.30;;;5.05;;
53505;SDS011;39388;50.936;6.848;2022-11-15T05:07:58;6.55;;;5.28;;
53505;SDS011;39388;50.936;6.848;2022-11-15T05:15:06;6.88;;;5.38;;
53505;SDS011;39388;50.936;6.848;2022-11-15T05:28:59;6.10;;;5.22;;
53505;SDS011;39388;50.936;6.848;2022-11-15T05:35:40;6.47;;;4.97;;
53505;SDS011;39388;50.936;6.848;2022-11-15T05:38:12;7.90;;;5.32;;
53505;SDS011;39388;50.936;6.848;2022-11-15T05:40:42;8.50;;;5.68;;
53505;SDS011;39388;50.936;6.848;2022-11-15T05:43:12;7.88;;;5.38;;
53505;SDS011;39388;50.936;6.848;2022-11-15T05:45:43;4.95;;;4.20;;
53505;SDS011;39388;50.936;6.848;2022-11-15T05:48:13;6.07;;;4.80;;
53505;SDS011;39388;50.936;6.848;2022-11-15T05:50:45;7.07;;;5.32;;
53505;SDS011;39388;50.936;6.848;2022-11-15T05:53:18;7.22;;;4.88;;
53505;SDS011;39388;50.936;6.848;2022-11-15T05:55:51;8.20;;;6.00;;
53505;SDS011;39388;50.936;6.848;2022-11-15T05:58:22;7.70;;;5.60;;
53505;SDS011;39388;50.936;6.848;2022-11-15T06:00:52;6.03;;;5.07;;
53505;SDS011;39388;50.936;6.848;2022-11-15T06:03:24;6.60;;;4.78;;
53505;SDS011;39388;50.936;6.848;2022-11-15T06:05:55;6.57;;;5.07;;
53505;SDS011;39388;50.936;6.848;2022-11-15T06:08:26;8.20;;;5.37;;
53505;SDS011;39388;50.936;6.848;2022-11-15T06:11:02;15.43;;;6.60;;
53505;SDS011;39388;50.936;6.848;2022-11-15T06:13:34;9.00;;;5.45;;
53505;SDS011;39388;50.936;6.848;2022-11-15T06:16:05;5.65;;;4.85;;
53505;SDS011;39388;50.936;6.848;2022-11-15T06:18:35;24.08;;;6.32;;
53505;SDS011;39388;50.936;6.848;2022-11-15T06:21:06;5.63;;;4.30;;
53505;SDS011;39388;50.936;6.848;2022-11-15T06:23:37;7.55;;;4.68;;
53505;SDS011;39388;50.936;6.848;2022-11-15T06:26:07;5.65;;;4.57;;
53505;SDS011;39388;50.936;6.848;2022-11-15T06:28:37;7.90;;;5.47;;
53505;SDS011;39388;50.936;6.848;2022-11-15T06:31:09;6.78;;;4.80;;
53505;SDS011;39388;50.936;6.848;2022-11-15T06:33:43;8.43;;;4.55;;
53505;SDS011;39388;50.936;6.848;2022-11-15T06:36:14;8.57;;;4.32;;
53505;SDS011;39388;50.936;6.848;2022-11-15T06:38:46;5.20;;;4.20;;
53505;SDS011;39388;50.936;6.848;2022-11-15T06:41:16;6.82;;;4.57;;
53505;SDS011;39388;50.936;6.848;2022-11-15T06:43:47;5.82;;;4.57;;
53505;SDS011;39388;50.936;6.848;2022-11-15T06:46:18;4.95;;;4.32;;
53505;SDS011;39388;50.936;6.848;2022-11-15T06:48:50;5.78;;;4.45;;
53505;SDS011;39388;50.936;6.848;2022-11-15T06:51:21;5.82;;;4.70;;
53505;SDS011;39388;50.936;6.848;2022-11-15T06:53:51;6.88;;;4.50;;
53505;SDS011;39388;50.936;6.848;2022-11-15T06:56:22;4.25;;;3.85;;
53505;SDS011;39388;50.936;6.848;2022-11-15T06:58:52;4.65;;;3.55;;
53505;SDS011;39388;50.936;6.848;2022-11-15T07:01:22;5.78;;;3.80;;
53505;SDS011;39388;50.936;6.848;2022-11-15T07:03:53;6.47;;;4.18;;
53505;SDS011;39388;50.936;6.848;2022-11-15T07:06:23;4.93;;;3.80;;
53505;SDS011;39388;50.936;6.848;2022-11-15T07:08:53;5.22;;;3.75;;
53505;SDS011;39388;50.936;6.848;2022-11-15T07:11:24;5.07;;;3.67;;
53505;SDS011;39388;50.936;6.848;2022-11-15T07:13:54;4.55;;;3.78;;
53505;SDS011;39388;50.936;6.848;2022-11-15T07:16:24;5.53;;;3.78;;
53505;SDS011;39388;50.936;6.848;2022-11-15T07:18:55;4.22;;;3.15;;
53505;SDS011;39388;50.936;6.848;2022-11-15T07:21:25;5.00;;;3.08;;
53505;SDS011;39388;50.936;6.848;2022-11-15T07:23:56;5.68;;;3.75;;
53505;SDS011;39388;50.936;6.848;2022-11-15T07:26:26;4.32;;;3.28;;
53505;SDS011;39388;50.936;6.848;2022-11-15T07:28:56;6.60;;;3.08;;
53505;SDS011;39388;50.936;6.848;2022-11-15T07:31:27;3.45;;;2.72;;
53505;SDS011;39388;50.936;6.848;2022-11-15T07:33:57;3.00;;;2.53;;
53505;SDS011;39388;50.936;6.848;2022-11-15T07:36:27;4.65;;;2.60;;
53505;SDS011;39388;50.936;6.848;2022-11-15T07:38:58;3.95;;;2.80;;
53505;SDS011;39388;50.936;6.848;2022-11-15T07:41:28;3.58;;;2.45;;
53505;SDS011;39388;50.936;6.848;2022-11-15T07:43:59;3.58;;;2.83;;
53505;SDS011;39388;50.936;6.848;2022-11-15T07:46:30;2.97;;;2.50;;
53505;SDS011;39388;50.936;6.848;2022-11-15T07:49:01;3.60;;;2.47;;
53505;SDS011;39388;50.936;6.848;2022-11-15T07:51:31;3.67;;;2.20;;
53505;SDS011;39388;50.936;6.848;2022-11-15T07:54:02;2.42;;;2.22;;
53505;SDS011;39388;50.936;6.848;2022-11-15T07:56:32;3.72;;;2.45;;
53505;SDS011;39388;50.936;6.848;2022-11-15T07:59:02;2.63;;;2.17;;
53505;SDS011;39388;50.936;6.848;2022-11-15T08:01:33;3.13;;;2.30;;
53505;SDS011;39388;50.936;6.848;2022-11-15T08:04:03;3.95;;;3.20;;
53505;SDS011;39388;50.936;6.848;2022-11-15T08:06:33;2.80;;;2.38;;
53505;SDS011;39388;50.936;6.848;2022-11-15T08:09:04;2.78;;;2.55;;
53505;SDS011;39388;50.936;6.848;2022-11-15T08:11:34;2.80;;;2.20;;
53505;SDS011;39388;50.936;6.848;2022-11-15T08:14:05;2.42;;;2.10;;
53505;SDS011;39388;50.936;6.848;2022-11-15T08:16:35;3.05;;;2.00;;
53505;SDS011;39388;50.936;6.848;2022-11-15T08:19:06;2.58;;;2.00;;
53505;SDS011;39388;50.936;6.848;2022-11-15T08:21:36;2.65;;;2.15;;
53505;SDS011;39388;50.936;6.848;2022-11-15T08:24:08;2.50;;;2.03;;
53505;SDS011;39388;50.936;6.848;2022-11-15T08:26:40;3.00;;;2.00;;
53505;SDS011;39388;50.936;6.848;2022-11-15T08:29:10;2.80;;;2.17;;
53505;SDS011;39388;50.936;6.848;2022-11-15T08:31:40;2.22;;;2.03;;
53505;SDS011;39388;50.936;6.848;2022-11-15T08:34:11;3.25;;;2.15;;
53505;SDS011;39388;50.936;6.848;2022-11-15T08:36:41;4.20;;;1.80;;
53505;SDS011;39388;50.936;6.848;2022-11-15T08:39:12;3.00;;;2.00;;
53505;SDS011;39388;50.936;6.848;2022-11-15T08:41:42;3.80;;;2.95;;
53505;SDS011;39388;50.936;6.848;2022-11-15T08:44:14;3.70;;;2.80;;
53505;SDS011;39388;50.936;6.848;2022-11-15T08:46:47;3.65;;;2.40;;
53505;SDS011;39388;50.936;6.848;2022-11-15T08:49:18;3.17;;;2.63;;
53505;SDS011;39388;50.936;6.848;2022-11-15T08:51:48;3.40;;;2.95;;
53505;SDS011;39388;50.936;6.848;2022-11-15T08:54:19;3.13;;;2.63;;
53505;SDS011;39388;50.936;6.848;2022-11-15T08:56:49;4.32;;;2.80;;
53505;SDS011;39388;50.936;6.848;2022-11-15T08:59:19;4.55;;;2.65;;
53505;SDS011;39388;50.936;6.848;2022-11-15T09:01:50;3.78;;;2.75;;
53505;SDS011;39388;50.936;6.848;2022-11-15T09:04:20;4.35;;;2.80;;
53505;SDS011;39388;50.936;6.848;2022-11-15T09:06:51;3.45;;;2.65;;
53505;SDS011;39388;50.936;6.848;2022-11-15T09:09:21;2.58;;;2.20;;
53505;SDS011;39388;50.936;6.848;2022-11-15T09:11:51;3.83;;;2.20;;
53505;SDS011;39388;50.936;6.848;2022-11-15T09:14:22;2.90;;;2.10;;
53505;SDS011;39388;50.936;6.848;2022-11-15T09:16:52;4.10;;;2.20;;
53505;SDS011;39388;50.936;6.848;2022-11-15T09:19:22;3.45;;;1.80;;
53505;SDS011;39388;50.936;6.848;2022-11-15T09:21:53;2.30;;;2.10;;
53505;SDS011;39388;50.936;6.848;2022-11-15T09:24:24;3.53;;;2.40;;
53505;SDS011;39388;50.936;6.848;2022-11-15T09:26:54;5.45;;;1.90;;
53505;SDS011;39388;50.936;6.848;2022-11-15T09:29:25;4.38;;;1.70;;
53505;SDS011;39388;50.936;6.848;2022-11-15T09:31:55;1.77;;;1.60;;
53505;SDS011;39388;50.936;6.848;2022-11-15T09:34:26;2.25;;;1.73;;
53505;SDS011;39388;50.936;6.848;2022-11-15T09:36:56;1.83;;;1.60;;
53505;SDS011;39388;50.936;6.848;2022-11-15T09:39:26;3.17;;;1.80;;
53505;SDS011;39388;50.936;6.848;2022-11-15T09:50:49;2.95;;;1.75;;
53505;SDS011;39388;50.936;6.848;2022-11-15T09:56:01;3.05;;;1.88;;
53505;SDS011;39388;50.936;6.848;2022-11-15T10:01:19;1.70;;;1.60;;
53505;SDS011;39388;50.936;6.848;2022-11-15T10:03:58;2.22;;;1.40;;
53505;SDS011;39388;50.936;6.848;2022-11-15T10:06:29;1.92;;;1.50;;
53505;SDS011;39388;50.936;6.848;2022-11-15T10:09:45;2.25;;;1.70;;
53505;SDS011;39388;50.936;6.848;2022-11-15T10:12:00;2.80;;;1.38;;
53505;SDS011;39388;50.936;6.848;2022-11-15T10:14:30;1.98;;;1.13;;
53505;SDS011;39388;50.936;6.848;2022-11-15T10:19:56;1.73;;;1.50;;
53505;SDS011;39388;50.936;6.848;2022-11-15T10:25:22;1.77;;;1.20;;
53505;SDS011;39388;50.936;6.848;2022-11-15T10:30:38;2.83;;;1.45;;
53505;SDS011;39388;50.936;6.848;2022-11-15T10:33:17;2.78;;;1.38;;
53505;SDS011;39388;50.936;6.848;2022-11-15T10:36:14;2.20;;;1.80;;
53505;SDS011;39388;50.936;6.848;2022-11-15T10:41:30;2.13;;;1.17;;
53505;SDS011;39388;50.936;6.848;2022-11-15T10:46:39;2.92;;;1.17;;
53505;SDS011;39388;50.936;6.848;2022-11-15T10:49:17;3.05;;;1.25;;
53505;SDS011;39388;50.936;6.848;2022-11-15T10:52:16;1.50;;;1.38;;
53505;SDS011;39388;50.936;6.848;2022-11-15T10:55:12;2.78;;;1.30;;
53505;SDS011;39388;50.936;6.848;2022-11-15T10:57:54;1.77;;;1.20;;
53505;SDS011;39388;50.936;6.848;2022-11-15T11:00:37;3.53;;;1.55;;
53505;SDS011;39388;50.936;6.848;2022-11-15T11:08:36;2.08;;;1.30;;
53505;SDS011;39388;50.936;6.848;2022-11-15T11:11:07;1.75;;;1.17;;
53505;SDS011;39388;50.936;6.848;2022-11-15T11:13:39;3.27;;;1.07;;
53505;SDS011;39388;50.936;6.848;2022-11-15T11:16:33;3.00;;;1.13;;
53505;SDS011;39388;50.936;6.848;2022-11-15T11:36:45;1.50;;;1.10;;
53505;SDS011;39388;50.936;6.848;2022-11-15T11:39:31;2.75;;;1.38;;
53505;SDS011;39388;50.936;6.848;2022-11-15T11:48:38;3.10;;;1.05;;
53505;SDS011;39388;50.936;6.848;2022-11-15T11:51:18;4.17;;;1.40;;
53505;SDS011;39388;50.936;6.848;2022-11-15T11:54:00;2.45;;;1.10;;
53505;SDS011;39388;50.936;6.848;2022-11-15T11:56:41;4.32;;;1.33;;
53505;SDS011;39388;50.936;6.848;2022-11-15T12:02:14;3.45;;;1.27;;
53505;SDS011;39388;50.936;6.848;2022-11-15T12:04:50;3.72;;;1.20;;
53505;SDS011;39388;50.936;6.848;2022-11-15T12:07:23;2.35;;;1.25;;
53505;SDS011;39388;50.936;6.848;2022-11-15T12:18:15;2.28;;;1.10;;
53505;SDS011;39388;50.936;6.848;2022-11-15T12:21:07;1.92;;;1.00;;
53505;SDS011;39388;50.936;6.848;2022-11-15T12:23:49;3.65;;;1.20;;
53505;SDS011;39388;50.936;6.848;2022-11-15T12:26:25;3.80;;;1.10;;
53505;SDS011;39388;50.936;6.848;2022-11-15T12:29:03;1.52;;;1.20;;
53505;SDS011;39388;50.936;6.848;2022-11-15T12:31:40;1.45;;;0.88;;
53505;SDS011;39388;50.936;6.848;2022-11-15T12:36:51;2.72;;;1.05;;
53505;SDS011;39388;50.936;6.848;2022-11-15T12:39:47;3.67;;;1.45;;
53505;SDS011;39388;50.936;6.848;2022-11-15T12:45:28;1.90;;;1.15;;
53505;SDS011;39388;50.936;6.848;2022-11-15T12:58:56;2.33;;;1.00;;
53505;SDS011;39388;50.936;6.848;2022-11-15T13:12:09;3.35;;;1.35;;
53505;SDS011;39388;50.936;6.848;2022-11-15T13:14:48;1.90;;;1.13;;
53505;SDS011;39388;50.936;6.848;2022-11-15T13:33:33;2.35;;;1.58;;
53505;SDS011;39388;50.936;6.848;2022-11-15T13:36:06;3.42;;;1.75;;
53505;SDS011;39388;50.936;6.848;2022-11-15T13:38:43;4.97;;;1.80;;
53505;SDS011;39388;50.936;6.848;2022-11-15T13:41:19;2.55;;;1.67;;
53505;SDS011;39388;50.936;6.848;2022-11-15T13:43:51;3.45;;;2.05;;
53505;SDS011;39388;50.936;6.848;2022-11-15T13:46:27;4.18;;;1.98;;
53505;SDS011;39388;50.936;6.848;2022-11-15T13:49:00;3.05;;;1.95;;
53505;SDS011;39388;50.936;6.848;2022-11-15T13:56:58;3.00;;;2.05;;
53505;SDS011;39388;50.936;6.848;2022-11-15T13:59:37;2.00;;;1.80;;
53505;SDS011;39388;50.936;6.848;2022-11-15T14:02:21;8.77;;;2.33;;
53505;SDS011;39388;50.936;6.848;2022-11-15T14:07:53;3.38;;;2.20;;
53505;SDS011;39388;50.936;6.848;2022-11-15T14:10:30;3.78;;;1.90;;
53505;SDS011;39388;50.936;6.848;2022-11-15T14:13:03;2.33;;;1.95;;
53505;SDS011;39388;50.936;6.848;2022-11-15T14:15:36;2.65;;;2.05;;
53505;SDS011;39388;50.936;6.848;2022-11-15T14:18:37;2.83;;;2.28;;
53505;SDS011;39388;50.936;6.848;2022-11-15T14:21:16;2.28;;;2.00;;
53505;SDS011;39388;50.936;6.848;2022-11-15T14:23:47;3.35;;;1.98;;
53505;SDS011;39388;50.936;6.848;2022-11-15T14:26:52;3.70;;;2.25;;
53505;SDS011;39388;50.936;6.848;2022-11-15T14:29:25;3.35;;;1.98;;
53505;SDS011;39388;50.936;6.848;2022-11-15T14:32:19;2.30;;;2.10;;
53505;SDS011;39388;50.936;6.848;2022-11-15T14:37:31;2.45;;;2.00;;
53505;SDS011;39388;50.936;6.848;2022-11-15T14:40:05;5.15;;;2.50;;
53505;SDS011;39388;50.936;6.848;2022-11-15T14:42:36;2.42;;;1.92;;
53505;SDS011;39388;50.936;6.848;2022-11-15T14:45:40;3.05;;;2.17;;
53505;SDS011;39388;50.936;6.848;2022-11-15T14:48:03;4.70;;;2.10;;
53505;SDS011;39388;50.936;6.848;2022-11-15T14:50:34;3.88;;;1.88;;
53505;SDS011;39388;50.936;6.848;2022-11-15T14:53:05;3.47;;;2.22;;
53505;SDS011;39388;50.936;6.848;2022-11-15T14:55:36;3.17;;;2.42;;
53505;SDS011;39388;50.936;6.848;2022-11-15T14:58:06;4.43;;;2.28;;
53505;SDS011;39388;50.936;6.848;2022-11-15T15:00:38;3.08;;;2.22;;
53505;SDS011;39388;50.936;6.848;2022-11-15T15:03:10;3.63;;;2.40;;
53505;SDS011;39388;50.936;6.848;2022-11-15T15:05:41;3.40;;;2.30;;
53505;SDS011;39388;50.936;6.848;2022-11-15T15:08:16;2.65;;;2.28;;
53505;SDS011;39388;50.936;6.848;2022-11-15T15:10:46;3.42;;;2.13;;
53505;SDS011;39388;50.936;6.848;2022-11-15T15:13:19;3.05;;;2.20;;
53505;SDS011;39388;50.936;6.848;2022-11-15T15:15:52;5.53;;;2.20;;
53505;SDS011;39388;50.936;6.848;2022-11-15T15:18:22;2.72;;;2.03;;
53505;SDS011;39388;50.936;6.848;2022-11-15T15:20:56;3.60;;;2.00;;
53505;SDS011;39388;50.936;6.848;2022-11-15T15:23:37;4.45;;;2.42;;
53505;SDS011;39388;50.936;6.848;2022-11-15T15:26:07;2.25;;;1.90;;
53505;SDS011;39388;50.936;6.848;2022-11-15T15:28:39;3.28;;;1.95;;
53505;SDS011;39388;50.936;6.848;2022-11-15T15:31:09;2.53;;;1.92;;
53505;SDS011;39388;50.936;6.848;2022-11-15T15:33:40;3.90;;;2.38;;
53505;SDS011;39388;50.936;6.848;2022-11-15T15:36:11;4.45;;;2.13;;
53505;SDS011;39388;50.936;6.848;2022-11-15T15:38:42;2.00;;;1.77;;
53505;SDS011;39388;50.936;6.848;2022-11-15T15:41:14;3.20;;;1.83;;
53505;SDS011;39388;50.936;6.848;2022-11-15T15:43:45;3.33;;;2.17;;
53505;SDS011;39388;50.936;6.848;2022-11-15T15:46:16;6.63;;;2.42;;
53505;SDS011;39388;50.936;6.848;2022-11-15T15:48:48;9.40;;;5.72;;
53505;SDS011;39388;50.936;6.848;2022-11-15T15:51:18;3.45;;;2.00;;
53505;SDS011;39388;50.936;6.848;2022-11-15T15:53:49;4.10;;;2.08;;
53505;SDS011;39388;50.936;6.848;2022-11-15T15:56:21;2.72;;;1.95;;
53505;SDS011;39388;50.936;6.848;2022-11-15T15:58:51;4.63;;;1.70;;
53505;SDS011;39388;50.936;6.848;2022-11-15T16:01:22;2.92;;;1.70;;
53505;SDS011;39388;50.936;6.848;2022-11-15T16:03:52;3.20;;;1.75;;
53505;SDS011;39388;50.936;6.848;2022-11-15T16:06:33;4.65;;;1.88;;
53505;SDS011;39388;50.936;6.848;2022-11-15T16:09:11;1.92;;;1.55;;
53505;SDS011;39388;50.936;6.848;2022-11-15T16:11:45;1.73;;;1.60;;
53505;SDS011;39388;50.936;6.848;2022-11-15T16:14:16;2.53;;;1.80;;
53505;SDS011;39388;50.936;6.848;2022-11-15T16:16:46;4.38;;;1.90;;
53505;SDS011;39388;50.936;6.848;2022-11-15T16:19:17;2.25;;;1.55;;
53505;SDS011;39388;50.936;6.848;2022-11-15T16:21:47;3.40;;;1.80;;
53505;SDS011;39388;50.936;6.848;2022-11-15T16:24:18;2.53;;;1.75;;
53505;SDS011;39388;50.936;6.848;2022-11-15T16:26:49;3.07;;;1.90;;
53505;SDS011;39388;50.936;6.848;2022-11-15T16:29:20;1.95;;;1.67;;
53505;SDS011;39388;50.936;6.848;2022-11-15T16:31:51;2.45;;;1.75;;
53505;SDS011;39388;50.936;6.848;2022-11-15T16:34:22;2.03;;;1.80;;
53505;SDS011;39388;50.936;6.848;2022-11-15T16:36:52;4.72;;;1.70;;
53505;SDS011;39388;50.936;6.848;2022-11-15T16:39:23;2.25;;;1.90;;
53505;SDS011;39388;50.936;6.848;2022-11-15T16:41:53;3.58;;;1.92;;
53505;SDS011;39388;50.936;6.848;2022-11-15T16:44:24;2.58;;;1.85;;
53505;SDS011;39388;50.936;6.848;2022-11-15T16:46:54;2.25;;;1.83;;
53505;SDS011;39388;50.936;6.848;2022-11-15T16:49:25;2.72;;;2.22;;
53505;SDS011;39388;50.936;6.848;2022-11-15T16:51:55;2.83;;;2.00;;
53505;SDS011;39388;50.936;6.848;2022-11-15T16:54:25;3.17;;;1.80;;
53505;SDS011;39388;50.936;6.848;2022-11-15T16:56:56;2.97;;;2.30;;
53505;SDS011;39388;50.936;6.848;2022-11-15T16:59:26;3.00;;;2.50;;
53505;SDS011;39388;50.936;6.848;2022-11-15T17:01:56;3.53;;;1.80;;
53505;SDS011;39388;50.936;6.848;2022-11-15T17:04:27;2.45;;;1.90;;
53505;SDS011;39388;50.936;6.848;2022-11-15T17:07:01;3.05;;;2.08;;
53505;SDS011;39388;50.936;6.848;2022-11-15T17:09:32;4.07;;;2.10;;
53505;SDS011;39388;50.936;6.848;2022-11-15T17:12:03;6.38;;;2.33;;
53505;SDS011;39388;50.936;6.848;2022-11-15T17:14:33;2.20;;;2.00;;
53505;SDS011;39388;50.936;6.848;2022-11-15T17:17:04;3.20;;;2.30;;
53505;SDS011;39388;50.936;6.848;2022-11-15T17:19:34;2.63;;;2.42;;
53505;SDS011;39388;50.936;6.848;2022-11-15T17:22:04;3.38;;;2.20;;
53505;SDS011;39388;50.936;6.848;2022-11-15T17:24:35;3.10;;;2.17;;
53505;SDS011;39388;50.936;6.848;2022-11-15T17:27:05;3.58;;;2.45;;
53505;SDS011;39388;50.936;6.848;2022-11-15T17:29:35;3.83;;;2.20;;
53505;SDS011;39388;50.936;6.848;2022-11-15T17:32:06;4.65;;;2.60;;
53505;SDS011;39388;50.936;6.848;2022-11-15T17:34:37;2.65;;;2.25;;
53505;SDS011;39388;50.936;6.848;2022-11-15T17:37:08;2.85;;;2.30;;
53505;SDS011;39388;50.936;6.848;2022-11-15T17:39:38;2.50;;;2.30;;
53505;SDS011;39388;50.936;6.848;2022-11-15T17:42:08;2.65;;;2.45;;
53505;SDS011;39388;50.936;6.848;2022-11-15T17:44:39;3.47;;;2.50;;
53505;SDS011;39388;50.936;6.848;2022-11-15T17:47:09;3.20;;;2.55;;
53505;SDS011;39388;50.936;6.848;2022-11-15T17:49:40;3.63;;;2.60;;
53505;SDS011;39388;50.936;6.848;2022-11-15T17:52:10;5.15;;;2.53;;
53505;SDS011;39388;50.936;6.848;2022-11-15T17:54:41;3.33;;;2.40;;
53505;SDS011;39388;50.936;6.848;2022-11-15T17:57:11;2.97;;;2.30;;
53505;SDS011;39388;50.936;6.848;2022-11-15T17:59:42;3.63;;;2.75;;
53505;SDS011;39388;50.936;6.848;2022-11-15T18:02:12;3.58;;;2.70;;
53505;SDS011;39388;50.936;6.848;2022-11-15T18:04:43;2.58;;;2.30;;
53505;SDS011;39388;50.936;6.848;2022-11-15T18:07:13;2.60;;;2.40;;
53505;SDS011;39388;50.936;6.848;2022-11-15T18:09:43;3.88;;;2.65;;
53505;SDS011;39388;50.936;6.848;2022-11-15T18:12:14;4.93;;;2.80;;
53505;SDS011;39388;50.936;6.848;2022-11-15T18:14:45;3.15;;;2.70;;
53505;SDS011;39388;50.936;6.848;2022-11-15T18:17:15;4.18;;;3.00;;
53505;SDS011;39388;50.936;6.848;2022-11-15T18:19:47;3.88;;;3.10;;
53505;SDS011;39388;50.936;6.848;2022-11-15T18:22:18;4.07;;;3.10;;
53505;SDS011;39388;50.936;6.848;2022-11-15T18:24:49;4.90;;;2.90;;
53505;SDS011;39388;50.936;6.848;2022-11-15T18:27:19;6.13;;;3.53;;
53505;SDS011;39388;50.936;6.848;2022-11-15T18:29:50;3.58;;;2.97;;
53505;SDS011;39388;50.936;6.848;2022-11-15T18:32:20;4.97;;;3.60;;
53505;SDS011;39388;50.936;6.848;2022-11-15T18:34:51;7.30;;;3.33;;